createdAt,value
2018-11-21T00:00:15.542Z,9.300
2018-11-21T00:03:15.204Z,6.800
2018-11-21T00:06:15.361Z,7.738
2018-11-21T00:09:15.227Z,9.525
2018-11-21T00:12:15.243Z,11.325
2018-11-21T00:15:15.549Z,10.750
2018-11-21T00:18:15.674Z,9.137
2018-11-21T00:21:15.785Z,7.488
2018-11-21T00:24:15.850Z,7.488
2018-11-21T00:27:15.943Z,13.787
2018-11-21T00:30:15.101Z,7.763
2018-11-21T00:33:15.243Z,9.787
2018-11-21T00:36:15.485Z,7.612
2018-11-21T00:39:15.745Z,11.162
2018-11-21T00:42:15.640Z,10.250
2018-11-21T00:45:15.745Z,8.188
2018-11-21T00:48:15.830Z,11.000
2018-11-21T00:51:15.658Z,10.438
2018-11-21T00:54:15.773Z,7.175
2018-11-21T00:57:15.711Z,12.287
2018-11-21T01:00:15.870Z,12.475
2018-11-21T01:03:15.710Z,9.375
2018-11-21T01:06:15.618Z,8.213
2018-11-21T01:09:15.576Z,14.750
2018-11-21T01:12:15.608Z,6.900
2018-11-21T01:15:15.440Z,4.775
2018-11-21T01:18:15.889Z,9.450
2018-11-21T01:21:14.911Z,12.925
2018-11-21T01:24:15.038Z,9.400
2018-11-21T01:27:15.010Z,12.575
2018-11-21T01:30:14.971Z,8.550
2018-11-21T01:33:15.085Z,10.000
2018-11-21T01:36:15.221Z,11.750
2018-11-21T01:39:15.092Z,3.562
2018-11-21T01:42:14.979Z,9.650
2018-11-21T01:45:14.924Z,7.625
2018-11-21T01:48:15.054Z,8.450
2018-11-21T01:51:14.880Z,10.662
2018-11-21T01:54:15.872Z,13.375
2018-11-21T01:57:15.815Z,10.863
2018-11-21T02:00:15.865Z,12.013
2018-11-21T02:03:15.812Z,10.600
2018-11-21T02:06:15.811Z,11.550
2018-11-21T02:09:15.837Z,6.737
2018-11-21T02:12:15.907Z,10.300
2018-11-21T02:15:15.773Z,9.900
2018-11-21T02:18:15.894Z,9.025
2018-11-21T02:21:15.831Z,5.662
2018-11-21T02:24:15.006Z,13.975
2018-11-21T02:27:14.968Z,8.500
2018-11-21T02:30:15.014Z,9.850
2018-11-21T02:33:15.827Z,10.587
2018-11-21T02:36:14.950Z,13.062
2018-11-21T02:39:15.890Z,10.688
2018-11-21T02:42:16.032Z,11.262
2018-11-21T02:45:15.956Z,11.750
2018-11-21T02:48:15.008Z,13.738
2018-11-21T02:51:15.014Z,11.588
2018-11-21T02:54:15.951Z,11.850
2018-11-21T02:57:15.837Z,11.787
2018-11-21T03:00:15.209Z,9.750
2018-11-21T03:03:15.764Z,14.625
2018-11-21T03:06:15.620Z,16.363
2018-11-21T03:09:15.658Z,9.125
2018-11-21T03:12:15.796Z,7.613
2018-11-21T03:15:15.892Z,16.087
2018-11-21T03:18:15.072Z,11.175
2018-11-21T03:21:14.953Z,9.087
2018-11-21T03:24:16.024Z,12.725
2018-11-21T03:27:15.264Z,13.725
2018-11-21T03:30:15.221Z,8.625
2018-11-21T03:33:15.385Z,13.500
2018-11-21T03:36:15.354Z,11.000
2018-11-21T03:39:15.600Z,12.988
2018-11-21T03:42:15.350Z,9.562
2018-11-21T03:45:15.422Z,12.588
2018-11-21T03:48:15.698Z,13.300
2018-11-21T03:51:15.583Z,9.600
2018-11-21T03:54:15.664Z,11.475
2018-11-21T03:57:15.674Z,10.162
2018-11-21T04:00:15.772Z,13.625
2018-11-21T04:03:15.870Z,13.163
2018-11-21T04:06:16.014Z,10.113
2018-11-21T04:09:15.279Z,13.375
2018-11-21T04:12:15.422Z,10.425
2018-11-21T04:15:15.421Z,11.587
2018-11-21T04:18:15.373Z,14.037
2018-11-21T04:21:15.389Z,11.350
2018-11-21T04:24:15.509Z,11.875
2018-11-21T04:27:15.669Z,17.300
2018-11-21T04:30:15.645Z,10.200
2018-11-21T04:33:15.633Z,6.512
2018-11-21T04:36:15.665Z,10.787
2018-11-21T04:39:15.889Z,10.512
2018-11-21T04:42:15.267Z,15.062
2018-11-21T04:45:15.092Z,11.487
2018-11-21T04:48:15.368Z,14.400
2018-11-21T04:51:15.301Z,11.200
2018-11-21T04:54:15.465Z,13.387
2018-11-21T04:57:15.827Z,10.025
2018-11-21T05:00:15.911Z,12.863
2018-11-21T05:03:15.030Z,13.438
2018-11-21T05:06:15.172Z,12.188
2018-11-21T05:09:15.351Z,10.850
2018-11-21T05:12:15.556Z,7.775
2018-11-21T05:15:15.511Z,12.550
2018-11-21T05:18:15.671Z,11.762
2018-11-21T05:21:15.898Z,8.462
2018-11-21T05:24:15.821Z,11.675
2018-11-21T05:27:15.224Z,9.738
2018-11-21T05:30:15.223Z,16.350
2018-11-21T05:33:15.305Z,12.962
2018-11-21T05:36:15.986Z,16.075
2018-11-21T05:39:14.924Z,15.825
2018-11-21T05:42:16.007Z,7.050
2018-11-21T05:45:15.172Z,8.500
2018-11-21T05:48:15.133Z,14.737
2018-11-21T05:51:15.214Z,14.412
2018-11-21T05:54:15.130Z,10.788
2018-11-21T05:57:15.401Z,9.400
2018-11-21T06:00:15.928Z,14.962
2018-11-21T06:03:15.026Z,8.900
2018-11-21T06:06:15.434Z,6.438
2018-11-21T06:09:15.449Z,9.000
2018-11-21T06:12:15.764Z,9.600
2018-11-21T06:15:15.778Z,11.738
2018-11-21T06:18:15.867Z,14.000
2018-11-21T06:21:16.006Z,14.238
2018-11-21T06:24:15.046Z,10.712
2018-11-21T06:27:15.460Z,14.087
2018-11-21T06:30:15.687Z,8.213
2018-11-21T06:33:15.888Z,10.825
2018-11-21T06:36:20.378Z,16.000
2018-11-21T06:39:15.636Z,13.463
2018-11-21T06:42:15.318Z,6.613
2018-11-21T06:45:15.510Z,12.812
2018-11-21T06:48:15.884Z,9.438
2018-11-21T06:51:15.807Z,10.950
2018-11-21T06:54:15.986Z,12.038
2018-11-21T06:57:15.353Z,14.262
2018-11-21T07:00:15.551Z,15.337
2018-11-21T07:03:15.678Z,6.925
2018-11-21T07:06:15.871Z,13.062
2018-11-21T07:09:15.346Z,14.438
2018-11-21T07:12:15.662Z,12.962
2018-11-21T07:15:15.765Z,12.338
2018-11-21T07:18:15.536Z,13.875
2018-11-21T07:21:15.704Z,10.750
2018-11-21T07:24:15.036Z,9.450
2018-11-21T07:27:15.284Z,13.988
2018-11-21T07:30:15.619Z,10.725
2018-11-21T07:33:15.774Z,13.887
2018-11-21T07:36:15.725Z,9.100
2018-11-21T07:39:16.036Z,12.475
2018-11-21T07:42:15.095Z,13.150
2018-11-21T07:45:15.299Z,15.700
2018-11-21T07:48:20.399Z,12.062
2018-11-21T07:51:15.849Z,21.100
2018-11-21T07:54:15.024Z,17.000
2018-11-21T07:57:15.425Z,17.637
2018-11-21T08:00:15.885Z,20.012
2018-11-21T08:03:15.727Z,15.562
2018-11-21T08:06:15.603Z,14.150
2018-11-21T08:09:15.471Z,12.075
2018-11-21T08:12:15.640Z,13.225
2018-11-21T08:15:19.281Z,14.550
2018-11-21T08:18:15.494Z,13.200
2018-11-21T08:21:15.925Z,16.125
2018-11-21T08:24:15.919Z,12.062
2018-11-21T08:27:15.249Z,8.700
2018-11-21T08:30:15.112Z,9.113
2018-11-21T08:33:15.196Z,21.087
2018-11-21T08:36:16.072Z,10.300
2018-11-21T08:39:15.216Z,8.100
2018-11-21T08:42:15.441Z,11.650
2018-11-21T08:45:15.467Z,17.425
2018-11-21T08:48:15.226Z,8.700
2018-11-21T08:51:15.618Z,11.387
2018-11-21T08:54:16.217Z,11.037
2018-11-21T08:57:15.378Z,14.162
2018-11-21T09:00:15.418Z,14.412
2018-11-21T09:03:15.600Z,14.488
2018-11-21T09:06:15.694Z,14.600
2018-11-21T09:09:15.120Z,12.562
2018-11-21T09:12:15.445Z,13.075
2018-11-21T09:15:15.641Z,8.912
2018-11-21T09:18:15.800Z,10.838
2018-11-21T09:21:16.063Z,14.463
2018-11-21T09:24:15.149Z,10.250
2018-11-21T09:27:15.369Z,9.488
2018-11-21T09:30:15.483Z,12.038
2018-11-21T09:33:15.621Z,10.450
2018-11-21T09:36:15.701Z,8.412
2018-11-21T09:39:15.879Z,5.825
2018-11-21T09:42:15.185Z,13.688
2018-11-21T09:45:15.308Z,7.088
2018-11-21T09:48:15.071Z,10.662
2018-11-21T09:51:15.107Z,9.350
2018-11-21T09:54:15.135Z,13.225
2018-11-21T09:57:15.173Z,9.588
2018-11-21T10:00:15.324Z,8.575
2018-11-21T10:03:15.159Z,9.088
2018-11-21T10:06:15.965Z,7.200
2018-11-21T10:09:15.950Z,9.537
2018-11-21T10:12:15.058Z,10.438
2018-11-21T10:15:15.244Z,12.113
2018-11-21T10:18:15.528Z,11.387
2018-11-21T10:21:15.623Z,8.475
2018-11-21T10:24:14.965Z,11.775
2018-11-21T10:27:15.949Z,7.425
2018-11-21T10:30:14.940Z,12.525
2018-11-21T10:33:15.414Z,10.163
2018-11-21T10:36:15.561Z,11.538
2018-11-21T10:39:15.686Z,8.750
2018-11-21T10:42:15.801Z,9.963
2018-11-21T10:45:16.044Z,10.312
2018-11-21T10:48:14.990Z,9.175
2018-11-21T10:51:15.177Z,10.088
2018-11-21T10:54:15.413Z,6.925
2018-11-21T10:57:15.490Z,9.925
2018-11-21T11:00:15.554Z,14.525
2018-11-21T11:03:15.915Z,7.425
2018-11-21T11:06:15.384Z,8.637
2018-11-21T11:09:15.191Z,7.875
2018-11-21T11:12:15.414Z,13.662
2018-11-21T11:18:15.523Z,6.588
2018-11-21T11:21:15.083Z,7.638
2018-11-21T11:24:15.053Z,14.038
2018-11-21T11:27:15.017Z,6.213
2018-11-21T11:30:15.194Z,9.863
2018-11-21T11:33:15.101Z,10.450
2018-11-21T11:36:15.225Z,11.350
2018-11-21T11:39:15.849Z,6.887
2018-11-21T11:42:15.611Z,7.362
2018-11-21T11:45:15.573Z,5.387
2018-11-21T11:48:15.394Z,8.475
2018-11-21T11:51:15.698Z,9.600
2018-11-21T11:54:15.692Z,10.738
2018-11-21T11:57:15.619Z,7.725
2018-11-21T12:00:15.893Z,10.887
2018-11-21T12:06:15.467Z,4.638
2018-11-21T12:09:15.331Z,10.825
2018-11-21T12:12:15.534Z,5.713
2018-11-21T12:15:15.997Z,5.338
2018-11-21T12:18:15.078Z,5.400
2018-11-21T12:21:15.004Z,9.625
2018-11-21T12:24:15.135Z,6.875
2018-11-21T12:27:15.249Z,11.150
2018-11-21T12:30:15.140Z,8.938
2018-11-21T12:33:15.975Z,5.800
2018-11-21T12:36:15.410Z,8.125
2018-11-21T12:39:14.958Z,5.162
2018-11-21T12:42:15.192Z,13.600
2018-11-21T12:45:15.752Z,7.550
2018-11-21T12:48:15.091Z,6.600
2018-11-21T12:51:15.176Z,6.137
2018-11-21T12:54:15.904Z,5.100
2018-11-21T12:57:15.468Z,4.125
2018-11-21T13:00:15.670Z,8.413
2018-11-21T13:03:14.998Z,9.525
2018-11-21T13:06:15.508Z,7.962
2018-11-21T13:09:15.096Z,4.713
2018-11-21T13:12:15.730Z,7.588
2018-11-21T13:15:15.384Z,6.500
2018-11-21T13:18:15.162Z,8.738
2018-11-21T13:21:15.542Z,8.188
2018-11-21T13:24:15.038Z,8.038
2018-11-21T13:27:15.654Z,9.987
2018-11-21T13:30:15.694Z,8.938
2018-11-21T13:33:15.774Z,8.337
2018-11-21T13:36:15.477Z,13.162
2018-11-21T13:39:15.908Z,7.587
2018-11-21T13:42:15.319Z,7.300
2018-11-21T13:45:15.698Z,9.450
2018-11-21T13:48:15.846Z,5.900
2018-11-21T13:51:15.360Z,5.875
2018-11-21T13:54:15.206Z,8.875
2018-11-21T13:57:15.282Z,5.787
2018-11-21T14:00:15.612Z,6.038
2018-11-21T14:03:15.752Z,6.250
2018-11-21T14:06:15.832Z,8.050
2018-11-21T14:09:15.895Z,4.938
2018-11-21T14:12:14.975Z,7.100
2018-11-21T14:15:15.160Z,5.037
2018-11-21T14:18:15.527Z,6.463
2018-11-21T14:21:15.777Z,6.150
2018-11-21T14:24:15.070Z,3.675
2018-11-21T14:27:15.200Z,6.463
2018-11-21T14:30:15.245Z,6.250
2018-11-21T14:33:15.372Z,5.938
2018-11-21T14:36:15.253Z,6.987
2018-11-21T14:39:15.438Z,7.325
2018-11-21T14:42:15.435Z,5.763
2018-11-21T14:45:15.617Z,7.288
2018-11-21T14:48:15.548Z,8.700
2018-11-21T14:51:15.622Z,8.513
2018-11-21T14:54:15.824Z,6.200
2018-11-21T14:57:15.147Z,7.237
2018-11-21T15:00:15.247Z,6.588
2018-11-21T15:03:18.376Z,2.838
2018-11-21T15:06:15.571Z,6.150
2018-11-21T15:09:15.690Z,3.975
2018-11-21T15:12:15.926Z,5.875
2018-11-21T15:15:15.053Z,6.100
2018-11-21T15:18:15.286Z,10.188
2018-11-21T15:21:16.728Z,4.575
2018-11-21T15:24:15.016Z,3.725
2018-11-21T15:27:14.986Z,5.787
2018-11-21T15:30:15.277Z,5.188
2018-11-21T15:33:15.247Z,6.963
2018-11-21T15:36:15.328Z,9.037
2018-11-21T15:39:15.356Z,3.712
2018-11-21T15:42:15.472Z,7.675
2018-11-21T15:45:15.557Z,5.050
2018-11-21T15:48:15.161Z,4.675
2018-11-21T15:51:15.002Z,4.825
2018-11-21T15:54:15.279Z,5.825
2018-11-21T15:57:15.444Z,6.737
2018-11-21T16:00:15.476Z,9.087
2018-11-21T16:03:15.329Z,8.150
2018-11-21T16:06:15.525Z,4.800
2018-11-21T16:09:15.746Z,11.238
2018-11-21T16:12:15.879Z,9.825
2018-11-21T16:15:14.967Z,6.938
2018-11-21T16:18:15.768Z,8.538
2018-11-21T16:21:15.020Z,7.337
2018-11-21T16:24:15.157Z,6.312
2018-11-21T16:27:15.213Z,8.950
2018-11-21T16:30:15.351Z,8.300
2018-11-21T16:33:15.415Z,5.400
2018-11-21T16:36:15.611Z,4.088
2018-11-21T16:39:15.747Z,3.688
2018-11-21T16:42:16.019Z,6.650
2018-11-21T16:45:15.052Z,7.113
2018-11-21T16:48:15.171Z,7.850
2018-11-21T16:51:15.365Z,4.562
2018-11-21T16:54:15.373Z,7.375
2018-11-21T16:57:15.600Z,4.912
2018-11-21T17:00:15.213Z,7.300
2018-11-21T17:03:15.786Z,6.463
2018-11-21T17:06:15.084Z,4.713
2018-11-21T17:09:15.298Z,7.438
2018-11-21T17:12:15.976Z,5.688
2018-11-21T17:15:15.215Z,3.925
2018-11-21T17:18:15.950Z,5.188
2018-11-21T17:21:15.027Z,6.412
2018-11-21T17:24:15.133Z,4.475
2018-11-21T17:27:15.357Z,3.725
2018-11-21T17:30:15.641Z,9.012
2018-11-21T17:33:15.802Z,6.312
2018-11-21T17:36:15.935Z,5.012
2018-11-21T17:39:15.165Z,3.325
2018-11-21T17:42:15.248Z,5.588
2018-11-21T17:45:15.470Z,4.062
2018-11-21T17:48:15.987Z,7.375
2018-11-21T17:51:15.187Z,9.075
2018-11-21T17:54:15.388Z,2.788
2018-11-21T17:57:15.639Z,3.312
2018-11-21T18:00:14.947Z,5.463
2018-11-21T18:03:15.573Z,3.975
2018-11-21T18:06:15.709Z,2.713
2018-11-21T18:09:15.770Z,4.975
2018-11-21T18:12:15.932Z,6.388
2018-11-21T18:15:15.075Z,2.925
2018-11-21T18:18:15.444Z,4.013
2018-11-21T18:21:19.812Z,4.900
2018-11-21T18:24:15.207Z,4.062
2018-11-21T18:27:15.361Z,4.250
2018-11-21T18:30:15.476Z,4.600
2018-11-21T18:33:15.229Z,5.325
2018-11-21T18:36:15.514Z,2.212
2018-11-21T18:39:15.653Z,6.487
2018-11-21T18:42:15.879Z,5.050
2018-11-21T18:45:15.937Z,2.938
2018-11-21T18:48:15.468Z,28.625
2018-11-21T18:51:15.771Z,13.400
2018-11-21T18:54:15.027Z,3.287
2018-11-21T18:57:15.134Z,7.125
2018-11-21T19:00:15.296Z,5.338
2018-11-21T19:03:14.998Z,5.325
2018-11-21T19:06:15.368Z,5.188
2018-11-21T19:09:15.551Z,2.237
2018-11-21T19:12:15.803Z,2.612
2018-11-21T19:15:15.803Z,2.425
2018-11-21T19:18:16.085Z,2.025
2018-11-21T19:21:15.463Z,0.800
2018-11-21T19:24:15.690Z,1.937
2018-11-21T19:27:15.823Z,4.263
2018-11-21T19:30:15.587Z,4.487
2018-11-21T19:33:15.868Z,2.700
2018-11-21T19:36:15.072Z,5.825
2018-11-21T19:39:15.356Z,1.188
2018-11-21T19:42:20.110Z,1.363
2018-11-21T19:45:15.763Z,1.163
2018-11-21T19:48:16.005Z,2.513
2018-11-21T19:51:15.315Z,9.688
2018-11-21T19:54:15.085Z,2.888
2018-11-21T19:57:15.386Z,0.850
2018-11-21T20:00:15.735Z,1.762
2018-11-21T20:03:15.836Z,0.700
2018-11-21T20:06:15.175Z,0.550
2018-11-21T20:09:15.348Z,0.625
2018-11-21T20:12:15.677Z,3.588
2018-11-21T20:15:15.142Z,4.663
2018-11-21T20:18:15.998Z,2.938
2018-11-21T20:21:15.538Z,2.825
2018-11-21T20:24:15.236Z,4.025
2018-11-21T20:27:15.222Z,4.900
2018-11-21T20:30:15.612Z,2.862
2018-11-21T20:33:15.490Z,1.212
2018-11-21T20:36:15.216Z,1.587
2018-11-21T20:39:15.718Z,3.600
2018-11-21T20:42:15.545Z,5.750
2018-11-21T20:45:15.823Z,0.637
2018-11-21T20:48:15.130Z,6.338
2018-11-21T20:51:15.379Z,1.475
2018-11-21T20:54:15.706Z,4.525
2018-11-21T20:57:15.258Z,1.688
2018-11-21T21:00:15.625Z,5.375
2018-11-21T21:03:15.421Z,4.950
2018-11-21T21:06:15.861Z,3.788
2018-11-21T21:09:15.052Z,4.387
2018-11-21T21:12:15.615Z,1.388
2018-11-21T21:15:15.902Z,1.513
2018-11-21T21:18:15.530Z,0.738
2018-11-21T21:21:15.965Z,1.512
2018-11-21T21:24:15.267Z,2.125
2018-11-21T21:27:15.614Z,0.988
2018-11-21T21:30:15.386Z,3.300
2018-11-21T21:33:15.283Z,2.100
2018-11-21T21:36:15.730Z,0.450
2018-11-21T21:39:15.194Z,2.163
2018-11-21T21:42:15.697Z,4.550
2018-11-21T21:45:15.859Z,0.950
2018-11-21T21:48:15.549Z,1.188
2018-11-21T21:51:15.732Z,0.338
2018-11-21T21:54:15.110Z,0.425
2018-11-21T21:57:15.087Z,2.938
2018-11-21T22:00:16.002Z,1.387
2018-11-21T22:03:15.356Z,1.475
2018-11-21T22:06:15.493Z,0.988
2018-11-21T22:09:15.584Z,1.363
2018-11-21T22:12:15.005Z,1.325
2018-11-21T22:15:15.475Z,3.338
2018-11-21T22:18:15.463Z,1.212
2018-11-21T22:21:15.442Z,0.450
2018-11-21T22:24:15.414Z,6.338
2018-11-21T22:27:15.662Z,1.500
2018-11-21T22:30:15.870Z,1.712
2018-11-21T22:33:15.171Z,1.537
2018-11-21T22:36:15.278Z,2.075
2018-11-21T22:39:15.190Z,2.450
2018-11-21T22:42:15.228Z,0.787
2018-11-21T22:45:15.336Z,1.125
2018-11-21T22:48:15.463Z,0.613
2018-11-21T22:51:15.619Z,0.413
2018-11-21T22:54:15.680Z,0.525
2018-11-21T22:57:15.721Z,0.662
2018-11-21T23:00:15.821Z,1.038
2018-11-21T23:03:15.048Z,0.975
2018-11-21T23:06:20.680Z,2.075
2018-11-21T23:09:15.816Z,0.425
2018-11-21T23:12:15.892Z,0.688
2018-11-21T23:15:15.373Z,1.700
2018-11-21T23:18:15.695Z,1.200
2018-11-21T23:21:15.943Z,2.612
2018-11-21T23:24:15.892Z,3.200
2018-11-21T23:27:15.857Z,1.237
2018-11-21T23:30:15.193Z,0.975
2018-11-21T23:33:15.513Z,1.500
2018-11-21T23:36:15.878Z,2.600
2018-11-21T23:39:15.202Z,3.938
2018-11-21T23:42:15.597Z,1.938
2018-11-21T23:45:15.104Z,0.663
2018-11-21T23:48:15.397Z,1.225
2018-11-21T23:51:15.602Z,4.925
2018-11-21T23:54:15.150Z,2.225
2018-11-21T23:57:16.292Z,0.987
